^^
Grace C. Lehan Memorial Weather Station Historical Data
Daily Summary for February 23, 2021 Units:  Metric    English   Both
Daily Weekly Monthly Yearly
  High: Low: Average:
Temperature: 1.4 °C -2.6 °C -0.7 °C
Dew Point: -7.1 °C -15.5 °C -10.7 °C
Humidity: 58.8% 28.4% 48%
Wind Speed: 21.7km/h 0km/h 7.1km/h
Wind Gust: 40.2km/h - -
Wind- - NW
Pressure: 1021.6 hPa 1010 hPa -
Precipitation: 0 mm    
 
 
Tabular Data for February 23, 2021
Time Temperature Dew Point Pressure Wind Wind Speed Wind Gust Humidity Rainfall Rate (Hourly) solar
00:04 0.9 °C -7.1 °C 1010 hPa NW 16.7 km/h 37 km/h 55% 0 mm 0 W/m2
00:09 0.9 °C -7.2 °C 1010 hPa NW 19.5 km/h 40.2 km/h 54.8% 0 mm 0 W/m2
00:14 0.9 °C -7.3 °C 1010.4 hPa NW 15.6 km/h 40.2 km/h 54.4% 0 mm 0 W/m2
00:19 0.9 °C -7.4 °C 1010.4 hPa WNW 20 km/h 40.2 km/h 54% 0 mm 0 W/m2
00:24 0.9 °C -7.4 °C 1010.7 hPa NW 13 km/h 40.2 km/h 54% 0 mm 0 W/m2
00:29 0.8 °C -7.3 °C 1010.7 hPa NW 10.1 km/h 40.2 km/h 54.5% 0 mm 0 W/m2
00:34 0.8 °C -7.5 °C 1011.1 hPa WNW 16.4 km/h 40.2 km/h 53.8% 0 mm 0 W/m2
00:39 0.8 °C -7.7 °C 1011.1 hPa WNW 13.7 km/h 37 km/h 53% 0 mm 0 W/m2
00:44 0.7 °C -8 °C 1011.4 hPa WNW 14.2 km/h 38.6 km/h 52.1% 0 mm 0 W/m2
00:49 0.6 °C -8.1 °C 1011.4 hPa NW 10.9 km/h 38.6 km/h 52% 0 mm 0 W/m2
00:54 0.6 °C -8.2 °C 1011.1 hPa WNW 14 km/h 38.6 km/h 52% 0 mm 0 W/m2
00:59 0.6 °C -8.2 °C 1011.1 hPa NW 14.6 km/h 38.6 km/h 52% 0 mm 0 W/m2
01:04 0.5 °C -8.2 °C 1011.1 hPa WNW 12.1 km/h 38.6 km/h 52% 0 mm 0 W/m2
01:09 0.4 °C -8.3 °C 1011.4 hPa WNW 7.9 km/h 24.1 km/h 52% 0 mm 0 W/m2
01:14 0.3 °C -8.3 °C 1011.7 hPa WNW 8.5 km/h 29 km/h 52% 0 mm 0 W/m2
01:19 0.3 °C -8.3 °C 1011.7 hPa WNW 6.4 km/h 29 km/h 52.3% 0 mm 0 W/m2
01:24 0.2 °C -8.3 °C 1011.7 hPa WNW 10.6 km/h 29 km/h 52.6% 0 mm 0 W/m2
01:29 0.2 °C -8.4 °C 1012.1 hPa NW 16.4 km/h 35.4 km/h 52% 0 mm 0 W/m2
01:34 0.2 °C -8.5 °C 1012.1 hPa WNW 12.1 km/h 35.4 km/h 52% 0 mm 0 W/m2
01:39 0.2 °C -8.4 °C 1012.1 hPa WNW 14.2 km/h 30.6 km/h 52.2% 0 mm 0 W/m2
01:44 0.1 °C -8.3 °C 1012.1 hPa NW 11.6 km/h 30.6 km/h 53% 0 mm 0 W/m2
01:49 0.1 °C -8.3 °C 1012.4 hPa WNW 10.6 km/h 30.6 km/h 53% 0 mm 0 W/m2
01:54 0.1 °C -8.3 °C 1012.4 hPa WNW 7.7 km/h 30.6 km/h 53.2% 0 mm 0 W/m2
01:59 -0.1 °C -8.2 °C 1012.4 hPa WNW 9.8 km/h 30.6 km/h 54% 0 mm 0 W/m2
02:04 -0.1 °C -8.3 °C 1012.8 hPa WNW 12.1 km/h 30.6 km/h 54% 0 mm 0 W/m2
02:09 -0.2 °C -8.3 °C 1012.8 hPa NW 9.3 km/h 25.7 km/h 54.2% 0 mm 0 W/m2
02:14 -0.2 °C -8.1 °C 1012.8 hPa NW 13.2 km/h 32.2 km/h 55.4% 0 mm 0 W/m2
02:19 -0.2 °C -7.9 °C 1012.8 hPa WNW 12.9 km/h 32.2 km/h 56% 0 mm 0 W/m2
02:24 -0.2 °C -7.8 °C 1013.1 hPa NW 6.1 km/h 32.2 km/h 56.4% 0 mm 0 W/m2
02:29 -0.3 °C -7.8 °C 1013.1 hPa NW 5.6 km/h 32.2 km/h 57% 0 mm 0 W/m2
02:34 -0.4 °C -7.9 °C 1013.1 hPa NW 13.7 km/h 32.2 km/h 57% 0 mm 0 W/m2
02:39 -0.4 °C -8 °C 1013.4 hPa NW 12.2 km/h 32.2 km/h 56.8% 0 mm 0 W/m2
02:44 -0.5 °C -8.2 °C 1013.4 hPa NW 13.2 km/h 32.2 km/h 56.2% 0 mm 0 W/m2
02:49 -0.6 °C -8.2 °C 1013.4 hPa NW 14.2 km/h 32.2 km/h 56.4% 0 mm 0 W/m2
02:54 -0.6 °C -8.3 °C 1013.8 hPa WNW 15.1 km/h 32.2 km/h 56.2% 0 mm 0 W/m2
02:59 -0.7 °C -8.3 °C 1013.4 hPa WNW 14.8 km/h 33.8 km/h 56% 0 mm 0 W/m2
03:04 -0.7 °C -8.4 °C 1013.8 hPa NW 19 km/h 33.8 km/h 56% 0 mm 0 W/m2
03:09 -0.8 °C -8.7 °C 1013.8 hPa NW 15 km/h 33.8 km/h 55% 0 mm 0 W/m2
03:14 -0.8 °C -8.7 °C 1013.8 hPa WNW 7.6 km/h 33.8 km/h 55.1% 0 mm 0 W/m2
03:19 -0.9 °C -8.8 °C 1013.8 hPa WNW 7.2 km/h 33.8 km/h 55.3% 0 mm 0 W/m2
03:24 -1 °C -8.7 °C 1013.8 hPa NW 10.3 km/h 33.8 km/h 55.6% 0 mm 0 W/m2
03:29 -1.1 °C -8.8 °C 1013.8 hPa NW 6.3 km/h 33.8 km/h 55.3% 0 mm 0 W/m2
03:34 -1.1 °C -9 °C 1013.8 hPa NW 8.9 km/h 33.8 km/h 55% 0 mm 0 W/m2
03:39 -1.2 °C -9.1 °C 1013.8 hPa WNW 7.6 km/h 27.4 km/h 55% 0 mm 0 W/m2
03:44 -1.2 °C -9.1 °C 1014.1 hPa NW 9.8 km/h 27.4 km/h 55% 0 mm 0 W/m2
03:49 -1.2 °C -9.1 °C 1014.1 hPa NW 7.1 km/h 27.4 km/h 55% 0 mm 0 W/m2
03:54 -1.3 °C -9.2 °C 1014.1 hPa WNW 1.9 km/h 27.4 km/h 55% 0 mm 0 W/m2
03:59 -1.3 °C -9.2 °C 1014.1 hPa WNW 12.6 km/h 27.4 km/h 55.2% 0 mm 0 W/m2
04:00 -1.3 °C -9.2 °C 1014.1 hPa NW 11.3 km/h 27.4 km/h 55% 0 mm 0 W/m2
04:09 -1.4 °C -9.3 °C 1014.4 hPa NW 13.7 km/h 32.2 km/h 55% 0 mm 0 W/m2
04:14 -1.4 °C -9.3 °C 1014.4 hPa NW 21.7 km/h 38.6 km/h 55% 0 mm 0 W/m2
04:19 -1.4 °C -9.3 °C 1014.4 hPa NW 17.2 km/h 38.6 km/h 55% 0 mm 0 W/m2
04:24 -1.4 °C -9.3 °C 1014.4 hPa NW 16.1 km/h 38.6 km/h 55% 0 mm 0 W/m2
04:29 -1.5 °C -9.3 °C 1014.4 hPa NW 13.2 km/h 38.6 km/h 55% 0 mm 0 W/m2
04:34 -1.6 °C -9.3 °C 1014.4 hPa NW 13.8 km/h 38.6 km/h 55.5% 0 mm 0 W/m2
04:39 -1.6 °C -9.2 °C 1014.4 hPa WNW 8.5 km/h 25.7 km/h 56% 0 mm 0 W/m2
04:44 -1.7 °C -9.3 °C 1014.4 hPa NW 13.5 km/h 27.4 km/h 56% 0 mm 0 W/m2
04:49 -1.7 °C -9.3 °C 1014.4 hPa NW 9 km/h 27.4 km/h 56% 0 mm 0 W/m2
04:54 -1.7 °C -9.3 °C 1014.8 hPa WNW 10.5 km/h 27.4 km/h 56% 0 mm 0 W/m2
04:59 -1.8 °C -9.4 °C 1014.8 hPa WNW 10.3 km/h 27.4 km/h 56% 0 mm 0 W/m2
05:04 -1.8 °C -9.3 °C 1014.8 hPa NW 4.2 km/h 27.4 km/h 56.2% 0 mm 0 W/m2
05:09 -1.8 °C -9.2 °C 1014.8 hPa NW 11.7 km/h 25.7 km/h 57% 0 mm 0 W/m2
05:14 -1.9 °C -9.3 °C 1015.1 hPa NW 6.6 km/h 25.7 km/h 57% 0 mm 0 W/m2
05:19 -1.9 °C -9.3 °C 1015.5 hPa NW 6.4 km/h 25.7 km/h 57% 0 mm 0 W/m2
05:24 -1.9 °C -9.1 °C 1015.5 hPa WNW 4.5 km/h 25.7 km/h 58% 0 mm 0 W/m2
05:29 -2 °C -9.2 °C 1015.5 hPa NW 5.8 km/h 25.7 km/h 58% 0 mm 0 W/m2
05:34 -2.1 °C -9.2 °C 1015.8 hPa NW 9.7 km/h 25.7 km/h 58% 0 mm 0 W/m2
05:39 -2.1 °C -9.2 °C 1015.8 hPa WNW 4.2 km/h 22.5 km/h 58% 0 mm 0 W/m2
05:44 -2.1 °C -9.2 °C 1016.1 hPa WNW 1.4 km/h 22.5 km/h 58% 0 mm 0 W/m2
05:49 -2.1 °C -9.3 °C 1016.1 hPa NW 2.9 km/h 22.5 km/h 58% 0 mm 0 W/m2
05:54 -2.2 °C -9.3 °C 1016.5 hPa WNW 8.4 km/h 22.5 km/h 58.2% 0 mm 0 W/m2
05:59 -2.2 °C -9.3 °C 1016.5 hPa WNW 9.3 km/h 22.5 km/h 58% 0 mm 0 W/m2
06:04 -2.2 °C -9.2 °C 1016.8 hPa WNW 8.2 km/h 22.5 km/h 58.5% 0 mm 0 W/m2
06:09 -2.2 °C -9.2 °C 1016.8 hPa NW 6 km/h 22.5 km/h 58.6% 0 mm 0 W/m2
06:14 -2.2 °C -9.2 °C 1017.2 hPa NW 10.3 km/h 22.5 km/h 58.8% 0 mm 0 W/m2
06:19 -2.2 °C -9.3 °C 1017.2 hPa NW 10.1 km/h 25.7 km/h 58.1% 0 mm 0 W/m2
06:24 -2.2 °C -9.3 °C 1017.2 hPa NW 9.7 km/h 25.7 km/h 58% 0 mm 0 W/m2
06:29 -2.2 °C -9.3 °C 1017.5 hPa WNW 8.7 km/h 25.7 km/h 58% 0 mm 0 W/m2
06:34 -2.3 °C -9.4 °C 1017.5 hPa WNW 5.3 km/h 25.7 km/h 58% 0 mm 0 W/m2
06:39 -2.3 °C -9.4 °C 1017.5 hPa WNW 9.8 km/h 27.4 km/h 58% 0 mm 0 W/m2
06:44 -2.3 °C -9.6 °C 1017.8 hPa WNW 11.7 km/h 27.4 km/h 57.2% 0 mm 0 W/m2
06:49 -2.3 °C -9.7 °C 1017.8 hPa WNW 13.2 km/h 27.4 km/h 57% 0 mm 0 W/m2
06:54 -2.3 °C -9.7 °C 1017.8 hPa WNW 12.6 km/h 27.4 km/h 57% 0 mm 0 W/m2
06:59 -2.3 °C -9.7 °C 1017.8 hPa WNW 9.2 km/h 29 km/h 57% 0 mm 0 W/m2
07:04 -2.4 °C -9.7 °C 1017.8 hPa NW 12.7 km/h 29 km/h 57% 0 mm 0 W/m2
07:09 -2.4 °C -9.8 °C 1017.8 hPa NW 10.3 km/h 25.7 km/h 57% 0 mm 0 W/m2
07:14 -2.4 °C -9.9 °C 1017.8 hPa NW 15 km/h 25.7 km/h 56.4% 0 mm 5 W/m2
07:19 -2.5 °C -10.1 °C 1017.8 hPa NW 7.9 km/h 25.7 km/h 56% 0 mm 5 W/m2
07:24 -2.5 °C -9.8 °C 1017.8 hPa WNW 9.7 km/h 25.7 km/h 57.1% 0 mm 7 W/m2
07:29 -2.6 °C -10.1 °C 1017.8 hPa WNW 13 km/h 25.7 km/h 56% 0 mm 11 W/m2
07:34 -2.6 °C -10.2 °C 1017.8 hPa NW 12.1 km/h 25.7 km/h 55.8% 0 mm 14 W/m2
07:39 -2.6 °C -10.4 °C 1018.2 hPa WNW 9.8 km/h 22.5 km/h 55% 0 mm 23 W/m2
07:44 -2.6 °C -10.4 °C 1017.8 hPa NW 10.6 km/h 27.4 km/h 55.2% 0 mm 46 W/m2
07:49 -2.6 °C -10.3 °C 1018.2 hPa NW 7.7 km/h 27.4 km/h 55% 0 mm 53 W/m2
07:54 -2.4 °C -10.5 °C 1018.2 hPa NW 10.3 km/h 27.4 km/h 53.7% 0 mm 63 W/m2
07:59 -2.2 °C -10.7 °C 1018.5 hPa NW 6.3 km/h 27.4 km/h 52.1% 0 mm 77 W/m2
08:00 -2.1 °C -10.6 °C 1018.5 hPa NW 11.3 km/h 27.4 km/h 52% 0 mm 77 W/m2
08:09 -1.8 °C -10.7 °C 1018.8 hPa WNW 14.3 km/h 32.2 km/h 50.6% 0 mm 102 W/m2
08:14 -1.7 °C -10.9 °C 1018.8 hPa WNW 8.9 km/h 32.2 km/h 49.4% 0 mm 121 W/m2
08:19 -1.6 °C -10.9 °C 1018.8 hPa NW 10.3 km/h 32.2 km/h 49% 0 mm 141 W/m2
08:24 -1.4 °C -11.1 °C 1018.8 hPa NW 11.6 km/h 32.2 km/h 47.7% 0 mm 156 W/m2
08:29 -1.3 °C -11.2 °C 1019.2 hPa NW 8.5 km/h 32.2 km/h 47% 0 mm 163 W/m2
08:34 -1.2 °C -11.1 °C 1019.2 hPa NW 6 km/h 32.2 km/h 46.8% 0 mm 146 W/m2
08:39 -1.1 °C -11.1 °C 1019.2 hPa NW 8.4 km/h 22.5 km/h 46.5% 0 mm 186 W/m2
08:44 -1 °C -11.4 °C 1019.2 hPa NW 5.3 km/h 22.5 km/h 45.2% 0 mm 179 W/m2
08:49 -1 °C -11.7 °C 1019.5 hPa NW 13.4 km/h 22.5 km/h 44.2% 0 mm 174 W/m2
08:54 -1.1 °C -12 °C 1019.5 hPa NW 7.9 km/h 22.5 km/h 43.2% 0 mm 190 W/m2
08:59 -1.1 °C -12 °C 1019.5 hPa NW 9.8 km/h 24.1 km/h 43.4% 0 mm 199 W/m2
09:04 -1.1 °C -11.9 °C 1019.9 hPa NW 4.7 km/h 24.1 km/h 43.5% 0 mm 211 W/m2
09:09 -0.9 °C -12 °C 1019.9 hPa NW 7.7 km/h 20.9 km/h 42.6% 0 mm 137 W/m2
09:14 -0.9 °C -12.2 °C 1019.9 hPa NW 8.2 km/h 20.9 km/h 41.8% 0 mm 179 W/m2
09:19 -0.9 °C -12.2 °C 1020.2 hPa NW 5 km/h 20.9 km/h 42% 0 mm 179 W/m2
09:24 -0.9 °C -12.3 °C 1020.2 hPa NW 3.2 km/h 20.9 km/h 41.6% 0 mm 162 W/m2
09:29 -0.9 °C -12.2 °C 1020.2 hPa NNW 3.9 km/h 20.9 km/h 42% 0 mm 142 W/m2
09:34 -0.8 °C -12.1 °C 1020.2 hPa WNW 5.3 km/h 20.9 km/h 42% 0 mm 171 W/m2
09:39 -0.8 °C -12.4 °C 1020.5 hPa NW 9 km/h 19.3 km/h 41% 0 mm 72 W/m2
09:44 -0.9 °C -12.6 °C 1020.5 hPa WNW 13.4 km/h 27.4 km/h 40.6% 0 mm 165 W/m2
09:49 -1 °C -12.9 °C 1020.5 hPa NW 11.4 km/h 27.4 km/h 40% 0 mm 105 W/m2
09:54 -1.1 °C -12.9 °C 1020.5 hPa NW 7.7 km/h 27.4 km/h 40% 0 mm 128 W/m2
09:59 -1 °C -12.7 °C 1020.2 hPa NNW 2.3 km/h 27.4 km/h 40.5% 0 mm 121 W/m2
10:04 -0.8 °C -12.4 °C 1020.2 hPa NNW 1.9 km/h 27.4 km/h 41.2% 0 mm 195 W/m2
10:09 -0.6 °C -12.4 °C 1020.5 hPa NNW 10.3 km/h 20.9 km/h 40.5% 0 mm 200 W/m2
10:14 -0.4 °C -12.4 °C 1020.5 hPa NW 5.8 km/h 22.5 km/h 39.7% 0 mm 283 W/m2
10:19 -0.1 °C -12.2 °C 1020.5 hPa NW 8.9 km/h 25.7 km/h 39.7% 0 mm 336 W/m2
10:24 0.2 °C -12.3 °C 1020.5 hPa NW 9.2 km/h 25.7 km/h 38.3% 0 mm 422 W/m2
10:29 0.6 °C -12.2 °C 1020.5 hPa NW 6.6 km/h 25.7 km/h 37.8% 0 mm 429 W/m2
10:34 0.9 °C -12.1 °C 1020.5 hPa NW 4 km/h 25.7 km/h 37.4% 0 mm 436 W/m2
10:39 1.2 °C -12.2 °C 1020.5 hPa NW 7.1 km/h 20.9 km/h 36.2% 0 mm 436 W/m2
10:44 1.3 °C -12.5 °C 1020.2 hPa NW 9.2 km/h 22.5 km/h 35.1% 0 mm 364 W/m2
10:49 1.2 °C -12.6 °C 1020.2 hPa NW 8.7 km/h 22.5 km/h 35% 0 mm 330 W/m2
10:54 1.2 °C -12.7 °C 1020.2 hPa WNW 7.6 km/h 25.7 km/h 34.8% 0 mm 176 W/m2
10:59 1.1 °C -13 °C 1020.2 hPa NW 11.1 km/h 25.7 km/h 34% 0 mm 107 W/m2
11:04 1 °C -13.1 °C 1020.2 hPa NW 8.7 km/h 27.4 km/h 34% 0 mm 148 W/m2
11:09 0.9 °C -13.1 °C 1020.2 hPa NW 4 km/h 27.4 km/h 34.3% 0 mm 160 W/m2
11:14 1 °C -12.7 °C 1020.2 hPa NNW 4.2 km/h 27.4 km/h 35.2% 0 mm 62 W/m2
11:19 1.1 °C -12.6 °C 1020.2 hPa NW 5.5 km/h 27.4 km/h 35.1% 0 mm 74 W/m2
11:24 1.1 °C -13.3 °C 1020.2 hPa NW 11.7 km/h 27.4 km/h 33.3% 0 mm 88 W/m2
11:29 1 °C -13.5 °C 1019.9 hPa NW 6.8 km/h 27.4 km/h 33% 0 mm 72 W/m2
11:34 0.9 °C -13.5 °C 1019.9 hPa NW 7.1 km/h 27.4 km/h 33.2% 0 mm 197 W/m2
11:39 0.9 °C -13.4 °C 1020.2 hPa WNW 5.3 km/h 20.9 km/h 33.4% 0 mm 262 W/m2
11:44 1 °C -13.6 °C 1020.2 hPa WNW 13.4 km/h 25.7 km/h 32.7% 0 mm 239 W/m2
11:49 0.9 °C -13.6 °C 1019.9 hPa NW 10.1 km/h 25.7 km/h 32.7% 0 mm 171 W/m2
11:54 1 °C -13.8 °C 1019.9 hPa NW 7.1 km/h 25.7 km/h 32.1% 0 mm 86 W/m2
11:59 1.1 °C -13.6 °C 1019.9 hPa WNW 14 km/h 30.6 km/h 32.6% 0 mm 330 W/m2
12:00 1.1 °C -14.2 °C 1019.9 hPa WNW 16.1 km/h 30.6 km/h 31% 0 mm 330 W/m2
12:09 1.1 °C -14.5 °C 1019.9 hPa WNW 16.9 km/h 33.8 km/h 30.3% 0 mm 343 W/m2
12:14 1 °C -15.1 °C 1019.9 hPa NW 17.9 km/h 33.8 km/h 29% 0 mm 327 W/m2
12:19 0.9 °C -15.2 °C 1019.9 hPa WNW 15.8 km/h 33.8 km/h 28.8% 0 mm 253 W/m2
12:24 0.7 °C -15.5 °C 1019.5 hPa WNW 17.2 km/h 33.8 km/h 28.4% 0 mm 109 W/m2
12:29 0.6 °C -15.3 °C 1019.5 hPa NW 10.9 km/h 33.8 km/h 29.1% 0 mm 114 W/m2
12:34 0.7 °C -15.3 °C 1019.5 hPa WNW 14 km/h 33.8 km/h 29% 0 mm 216 W/m2
12:39 0.8 °C -15.3 °C 1019.5 hPa WNW 14.2 km/h 29 km/h 28.8% 0 mm 329 W/m2
12:44 1 °C -14.9 °C 1019.5 hPa WNW 5.1 km/h 29 km/h 29.3% 0 mm 323 W/m2
12:49 1.3 °C -14.7 °C 1019.5 hPa WNW 10.9 km/h 29 km/h 29.3% 0 mm 287 W/m2
12:54 1.4 °C -14.7 °C 1019.5 hPa NW 8.2 km/h 29 km/h 29% 0 mm 172 W/m2
12:59 1.4 °C -14.2 °C 1019.5 hPa WNW 14.5 km/h 35.4 km/h 30.3% 0 mm 155 W/m2
13:04 1.2 °C -14.3 °C 1019.5 hPa WNW 18.3 km/h 35.4 km/h 30.5% 0 mm 165 W/m2
13:09 0.9 °C -14.4 °C 1019.5 hPa NW 19.3 km/h 35.4 km/h 30.7% 0 mm 181 W/m2
13:14 0.8 °C -14.4 °C 1019.9 hPa NW 7.9 km/h 35.4 km/h 31.1% 0 mm 155 W/m2
13:19 0.7 °C -14.1 °C 1019.9 hPa NW 8.5 km/h 35.4 km/h 32% 0 mm 139 W/m2
13:24 0.7 °C -14.2 °C 1019.5 hPa NW 9 km/h 35.4 km/h 32% 0 mm 128 W/m2
13:29 0.6 °C -14.2 °C 1019.9 hPa NW 8.9 km/h 35.4 km/h 32% 0 mm 125 W/m2
13:34 0.5 °C -14.3 °C 1019.9 hPa WNW 12.6 km/h 35.4 km/h 32% 0 mm 135 W/m2
13:39 0.4 °C -14.2 °C 1019.9 hPa WNW 8.2 km/h 22.5 km/h 32.4% 0 mm 141 W/m2
13:44 0.4 °C -13.9 °C 1019.9 hPa WNW 8.9 km/h 24.1 km/h 33% 0 mm 146 W/m2
13:49 0.5 °C -13.7 °C 1019.9 hPa NW 14.2 km/h 30.6 km/h 33.5% 0 mm 146 W/m2
13:54 0.6 °C -13.6 °C 1019.9 hPa NW 8.5 km/h 30.6 km/h 33.9% 0 mm 139 W/m2
13:59 0.6 °C -13.1 °C 1019.9 hPa NW 7.7 km/h 30.6 km/h 35% 0 mm 114 W/m2
14:04 0.6 °C -13.1 °C 1019.9 hPa WNW 6.9 km/h 30.6 km/h 35.3% 0 mm 171 W/m2
14:09 0.6 °C -12.3 °C 1019.9 hPa NW 10.8 km/h 22.5 km/h 37.2% 0 mm 142 W/m2
14:14 0.7 °C -11.8 °C 1019.9 hPa NW 5.1 km/h 22.5 km/h 38.7% 0 mm 137 W/m2
14:19 0.8 °C -11.2 °C 1019.9 hPa NW 7.6 km/h 22.5 km/h 40.3% 0 mm 116 W/m2
14:24 0.9 °C -11.7 °C 1019.9 hPa NW 4.5 km/h 22.5 km/h 38.3% 0 mm 105 W/m2
14:29 0.9 °C -11.8 °C 1020.2 hPa NW 7.9 km/h 22.5 km/h 38% 0 mm 90 W/m2
14:34 0.9 °C -11.9 °C 1019.9 hPa WNW 7.9 km/h 22.5 km/h 37.5% 0 mm 79 W/m2
14:39 0.8 °C -11.9 °C 1019.9 hPa NNW 6.9 km/h 20.9 km/h 37.8% 0 mm 83 W/m2
14:44 0.8 °C -11.9 °C 1019.9 hPa NW 9.3 km/h 22.5 km/h 38% 0 mm 58 W/m2
14:49 0.8 °C -11.9 °C 1019.9 hPa WNW 5.5 km/h 22.5 km/h 38% 0 mm 44 W/m2
14:54 0.8 °C -11.6 °C 1019.9 hPa WNW 6 km/h 22.5 km/h 38.8% 0 mm 40 W/m2
14:59 0.9 °C -11.8 °C 1019.9 hPa WNW 4.3 km/h 22.5 km/h 38% 0 mm 30 W/m2
15:04 0.9 °C -11.8 °C 1019.9 hPa NW 11.4 km/h 32.2 km/h 38.2% 0 mm 25 W/m2
15:09 0.8 °C -11.9 °C 1019.9 hPa WNW 13.2 km/h 32.2 km/h 38% 0 mm 23 W/m2
15:14 0.7 °C -12.1 °C 1019.9 hPa NW 9.8 km/h 32.2 km/h 38% 0 mm 21 W/m2
15:19 0.6 °C -12 °C 1019.9 hPa WNW 3.9 km/h 32.2 km/h 38.4% 0 mm 21 W/m2
15:24 0.6 °C -11.6 °C 1019.9 hPa NW 8 km/h 32.2 km/h 39.7% 0 mm 19 W/m2
15:29 0.6 °C -11.7 °C 1020.2 hPa WNW 6 km/h 32.2 km/h 39.3% 0 mm 19 W/m2
15:34 0.5 °C -11.6 °C 1020.2 hPa NW 7.7 km/h 32.2 km/h 40% 0 mm 16 W/m2
15:39 0.4 °C -11.6 °C 1020.2 hPa NW 9.7 km/h 24.1 km/h 40% 0 mm 14 W/m2
15:44 0.4 °C -11.7 °C 1020.2 hPa NW 5.6 km/h 24.1 km/h 40% 0 mm 12 W/m2
15:49 0.3 °C -11.6 °C 1020.2 hPa WNW 3.9 km/h 24.1 km/h 40.4% 0 mm 12 W/m2
15:54 0.3 °C -11.4 °C 1020.5 hPa WNW 6.4 km/h 24.1 km/h 41% 0 mm 11 W/m2
15:59 0.2 °C -11.3 °C 1020.5 hPa WNW 5.5 km/h 24.1 km/h 41.4% 0 mm 9 W/m2
16:00 0.2 °C -10.6 °C 1020.2 hPa WNW 1.6 km/h 24.1 km/h 44% 0 mm 7 W/m2
16:09 0.2 °C -10 °C 1020.5 hPa NW 6.6 km/h 14.5 km/h 46% 0 mm 5 W/m2
16:14 0.3 °C -9.8 °C 1020.5 hPa WNW 1.8 km/h 14.5 km/h 46.6% 0 mm 5 W/m2
16:19 0.3 °C -9.4 °C 1020.5 hPa NW 2.9 km/h 16.1 km/h 48.2% 0 mm 0 W/m2
16:24 0.3 °C -9.6 °C 1020.5 hPa NW 0.5 km/h 16.1 km/h 47.2% 0 mm 0 W/m2
16:29 0.3 °C -10 °C 1020.5 hPa WNW 2.9 km/h 16.1 km/h 45.9% 0 mm 0 W/m2
16:34 0.2 °C -10.6 °C 1020.5 hPa NW 1.8 km/h 16.1 km/h 44.1% 0 mm 0 W/m2
16:39 0.2 °C -10.6 °C 1020.5 hPa NW 1.1 km/h 9.7 km/h 44.2% 0 mm 0 W/m2
16:44 0.2 °C -10.7 °C 1020.5 hPa NW 0.2 km/h 9.7 km/h 44% 0 mm 0 W/m2
16:49 0.2 °C -10.6 °C 1020.5 hPa NW 0.3 km/h 9.7 km/h 44.3% 0 mm 0 W/m2
16:54 0.1 °C -10.4 °C 1020.9 hPa NW 0.5 km/h 9.7 km/h 45% 0 mm 0 W/m2
16:59 0.1 °C -10.5 °C 1020.9 hPa NW 0.6 km/h 9.7 km/h 44.8% 0 mm 0 W/m2
17:04 0 °C -10.5 °C 1020.9 hPa NW 1.1 km/h 9.7 km/h 45% 0 mm 0 W/m2
17:09 -0.1 °C -10.6 °C 1020.9 hPa NW 0.5 km/h 8 km/h 45% 0 mm 0 W/m2
17:14 -0.2 °C -10.7 °C 1021.2 hPa NW 0.2 km/h 8 km/h 45% 0 mm 0 W/m2
17:19 -0.3 °C -10.8 °C 1021.2 hPa NW 0.2 km/h 8 km/h 45% 0 mm 0 W/m2
17:24 -0.4 °C -10.7 °C 1021.2 hPa NW 0.5 km/h 8 km/h 45.6% 0 mm 0 W/m2
17:29 -0.6 °C -10.7 °C 1021.2 hPa NW 0.2 km/h 8 km/h 46% 0 mm 0 W/m2
17:34 -0.7 °C -10.8 °C 1021.2 hPa Calm   8 km/h 46.1% 0 mm 0 W/m2
17:39 -0.7 °C -10.8 °C 1021.2 hPa Calm     46.5% 0 mm 0 W/m2
17:44 -0.8 °C -10.7 °C 1021.2 hPa Calm     47% 0 mm 0 W/m2
17:49 -0.9 °C -10.8 °C 1021.2 hPa Calm     47.1% 0 mm 0 W/m2
17:54 -1.1 °C -10.6 °C 1021.2 hPa Calm     48.5% 0 mm 0 W/m2
17:59 -1.2 °C -10.5 °C 1021.2 hPa Calm     49% 0 mm 0 W/m2
18:04 -1.2 °C -10.6 °C 1021.2 hPa Calm   1.6 km/h 49% 0 mm 0 W/m2
18:09 -1.3 °C -10.6 °C 1021.6 hPa NW 0.2 km/h 1.6 km/h 49.4% 0 mm 0 W/m2
18:14 -1.4 °C -10.4 °C 1021.6 hPa Calm   1.6 km/h 50% 0 mm 0 W/m2
18:19 -1.4 °C -10.5 °C 1021.2 hPa NW 0.3 km/h 3.2 km/h 50% 0 mm 0 W/m2
18:24 -1.4 °C -10.5 °C 1021.6 hPa NW 0.2 km/h 3.2 km/h 50.1% 0 mm 0 W/m2
18:29 -1.4 °C -10.3 °C 1021.6 hPa NW 0.3 km/h 3.2 km/h 51% 0 mm 0 W/m2
18:34 -1.4 °C -10.1 °C 1021.6 hPa NW 0.6 km/h 4.8 km/h 51.4% 0 mm 0 W/m2
18:39 -1.3 °C -9.9 °C 1021.6 hPa NW 0.8 km/h 4.8 km/h 52% 0 mm 0 W/m2
18:44 -1.3 °C -9.9 °C 1021.6 hPa NW 0.3 km/h 4.8 km/h 51.8% 0 mm 0 W/m2
18:49 -1.2 °C -9.9 °C 1021.6 hPa NW 0.6 km/h 6.4 km/h 51.5% 0 mm 0 W/m2
18:54 -1.2 °C -9.8 °C 1021.6 hPa NW 0.3 km/h 6.4 km/h 52% 0 mm 0 W/m2
18:59 -1.2 °C -10.1 °C 1021.6 hPa NW 0.2 km/h 6.4 km/h 51% 0 mm 0 W/m2
19:04 -1.2 °C -10.1 °C 1021.6 hPa NW 0.2 km/h 6.4 km/h 51% 0 mm 0 W/m2
19:09 -1.3 °C -10.1 °C 1021.6 hPa NW 0.3 km/h 3.2 km/h 51.1% 0 mm 0 W/m2
19:14 -1.3 °C -9.9 °C 1021.6 hPa NW 0.3 km/h 3.2 km/h 52% 0 mm 0 W/m2
19:19 -1.3 °C -9.9 °C 1021.6 hPa NW 0.6 km/h 4.8 km/h 52% 0 mm 0 W/m2
19:24 -1.3 °C -9.9 °C 1021.6 hPa Calm   4.8 km/h 52% 0 mm 0 W/m2
19:29 -1.4 °C -9.9 °C 1021.6 hPa NW 0.6 km/h 4.8 km/h 52% 0 mm 0 W/m2
19:34 -1.4 °C -10 °C 1021.6 hPa NW 0.8 km/h 4.8 km/h 52% 0 mm 0 W/m2
19:39 -1.5 °C -10.1 °C 1021.6 hPa NW 0.5 km/h 4.8 km/h 52% 0 mm 0 W/m2
19:44 -1.5 °C -10.1 °C 1021.6 hPa Calm   4.8 km/h 52% 0 mm 0 W/m2
19:49 -1.6 °C -10.1 °C 1021.6 hPa NW 0.3 km/h 4.8 km/h 52% 0 mm 0 W/m2
19:54 -1.6 °C -10.1 °C 1021.6 hPa Calm   4.8 km/h 52.6% 0 mm 0 W/m2
19:59 -1.7 °C -10 °C 1021.6 hPa Calm   4.8 km/h 53% 0 mm 0 W/m2
20:00 -1.7 °C -10.1 °C 1021.2 hPa Calm   4.8 km/h 53% 0 mm 0 W/m2
20:09 -1.8 °C -10.2 °C 1021.6 hPa NW 0.2 km/h 1.6 km/h 53.1% 0 mm 0 W/m2
20:14 -1.9 °C -10.2 °C 1021.6 hPa Calm   1.6 km/h 53% 0 mm 0 W/m2
20:19 -1.9 °C -10.1 °C 1021.6 hPa Calm   1.6 km/h 53.8% 0 mm 0 W/m2
20:24 -2.1 °C -9.9 °C 1021.2 hPa Calm   1.6 km/h 54.7% 0 mm 0 W/m2
20:29 -2.1 °C -9.9 °C 1021.6 hPa Calm   1.6 km/h 55% 0 mm 0 W/m2
20:34 -2.2 °C -10 °C 1021.6 hPa Calm   1.6 km/h 55% 0 mm 0 W/m2
20:39 -2.2 °C -10.1 °C 1021.6 hPa Calm     55% 0 mm 0 W/m2
20:44 -2.3 °C -9.9 °C 1021.6 hPa Calm     55.6% 0 mm 0 W/m2
20:49 -2.3 °C -9.7 °C 1021.6 hPa Calm   1.6 km/h 56.9% 0 mm 0 W/m2
20:54 -2.3 °C -10.2 °C 1021.6 hPa Calm   1.6 km/h 55% 0 mm 0 W/m2
20:59 -2.4 °C -10.4 °C 1021.6 hPa Calm   3.2 km/h 54% 0 mm 0 W/m2
21:04 -2.4 °C -10.4 °C 1021.6 hPa NW 0.3 km/h 3.2 km/h 54% 0 mm 0 W/m2
21:09 -2.4 °C -10.5 °C 1021.6 hPa NW 0.2 km/h 3.2 km/h 54% 0 mm 0 W/m2
21:14 -2.4 °C -10.8 °C 1021.6 hPa NW 0.6 km/h 4.8 km/h 52.7% 0 mm 0 W/m2
21:19 -2.4 °C -10.8 °C 1021.6 hPa NW 0.3 km/h 4.8 km/h 52.5% 0 mm 0 W/m2
21:24 -2.3 °C -10.6 °C 1021.2 hPa NW 0.2 km/h 4.8 km/h 53.1% 0 mm 0 W/m2
21:29 -2.3 °C -10.6 °C 1021.2 hPa Calm   4.8 km/h 53.2% 0 mm 0 W/m2
21:34 -2.3 °C -10.6 °C 1021.2 hPa Calm   4.8 km/h 53% 0 mm 0 W/m2
21:39 -2.2 °C -10.6 °C 1021.2 hPa Calm     52.5% 0 mm 0 W/m2
21:44 -2.2 °C -10.3 °C 1021.2 hPa Calm     53.6% 0 mm 0 W/m2
21:49 -2.1 °C -9.9 °C 1020.9 hPa Calm     55% 0 mm 0 W/m2
21:54 -2.1 °C -9.8 °C 1020.9 hPa Calm     55.3% 0 mm 0 W/m2
21:59 -2.1 °C -9.8 °C 1020.9 hPa Calm     55.5% 0 mm 0 W/m2
22:04 -2 °C -10.1 °C 1020.9 hPa Calm     54.2% 0 mm 0 W/m2
22:09 -2 °C -10.1 °C 1020.9 hPa Calm     53.8% 0 mm 0 W/m2
22:14 -1.9 °C -10.2 °C 1020.9 hPa Calm     53.1% 0 mm 0 W/m2
22:19 -1.9 °C -10.1 °C 1020.9 hPa Calm     53.3% 0 mm 0 W/m2
22:24 -1.8 °C -9.9 °C 1020.9 hPa Calm     54% 0 mm 0 W/m2
22:29 -1.8 °C -9.9 °C 1020.5 hPa Calm     54% 0 mm 0 W/m2
22:34 -1.8 °C -10.4 °C 1020.5 hPa NW 0.2 km/h 3.2 km/h 52.1% 0 mm 0 W/m2
22:38 -1.8 °C -10.6 °C 1020.5 hPa Calm   3.2 km/h 51.3% 0 mm 0 W/m2
Hartford County Weather
Compliments of Weather Underground - 4 mb